sensor_id;sensor_type;location;lat;lon;timestamp;pressure;altitude;pressure_sealevel;temperature;humidity
12172;BME280;6149;52.418;13.668;2023-03-05T00:01:33;101021.84;;;2.67;97.93
12172;BME280;6149;52.418;13.668;2023-03-05T00:04:01;101011.34;;;2.72;98.37
12172;BME280;6149;52.418;13.668;2023-03-05T00:06:30;101014.66;;;2.83;98.21
12172;BME280;6149;52.418;13.668;2023-03-05T00:08:59;101012.16;;;2.75;99.18
12172;BME280;6149;52.418;13.668;2023-03-05T00:11:27;101016.53;;;2.75;99.63
12172;BME280;6149;52.418;13.668;2023-03-05T00:13:55;100999.09;;;2.75;99.72
12172;BME280;6149;52.418;13.668;2023-03-05T00:16:22;101001.59;;;2.83;100.00
12172;BME280;6149;52.418;13.668;2023-03-05T00:18:51;100994.50;;;2.92;99.23
12172;BME280;6149;52.418;13.668;2023-03-05T00:21:20;100986.66;;;2.94;100.00
12172;BME280;6149;52.418;13.668;2023-03-05T00:23:48;100984.94;;;2.91;99.94
12172;BME280;6149;52.418;13.668;2023-03-05T00:26:17;100981.50;;;2.88;100.00
12172;BME280;6149;52.418;13.668;2023-03-05T00:28:44;100985.88;;;2.87;100.00
12172;BME280;6149;52.418;13.668;2023-03-05T00:31:14;100990.84;;;3.02;100.00
12172;BME280;6149;52.418;13.668;2023-03-05T00:33:40;100986.72;;;2.89;100.00
12172;BME280;6149;52.418;13.668;2023-03-05T00:36:08;100975.44;;;2.87;100.00
12172;BME280;6149;52.418;13.668;2023-03-05T00:38:35;100971.03;;;2.89;100.00
12172;BME280;6149;52.418;13.668;2023-03-05T00:41:02;100972.81;;;2.87;100.00
12172;BME280;6149;52.418;13.668;2023-03-05T00:43:30;100975.50;;;2.83;100.00
12172;BME280;6149;52.418;13.668;2023-03-05T00:45:57;100972.81;;;2.87;100.00
12172;BME280;6149;52.418;13.668;2023-03-05T00:48:23;100974.66;;;2.81;100.00
12172;BME280;6149;52.418;13.668;2023-03-05T00:50:50;100968.72;;;2.69;100.00
12172;BME280;6149;52.418;13.668;2023-03-05T00:53:17;100971.44;;;2.62;100.00
12172;BME280;6149;52.418;13.668;2023-03-05T00:55:44;100959.34;;;2.58;100.00
12172;BME280;6149;52.418;13.668;2023-03-05T00:58:10;100961.88;;;2.61;100.00
12172;BME280;6149;52.418;13.668;2023-03-05T01:00:38;100952.38;;;2.58;100.00
12172;BME280;6149;52.418;13.668;2023-03-05T01:03:05;100955.03;;;2.57;100.00
12172;BME280;6149;52.418;13.668;2023-03-05T01:05:32;100948.22;;;2.45;100.00
12172;BME280;6149;52.418;13.668;2023-03-05T01:07:58;100950.94;;;2.36;100.00
12172;BME280;6149;52.418;13.668;2023-03-05T01:10:25;100941.44;;;2.32;100.00
12172;BME280;6149;52.418;13.668;2023-03-05T01:12:53;100940.53;;;2.34;100.00
12172;BME280;6149;52.418;13.668;2023-03-05T01:15:20;100926.75;;;2.25;100.00
12172;BME280;6149;52.418;13.668;2023-03-05T01:17:48;100925.06;;;2.22;100.00
12172;BME280;6149;52.418;13.668;2023-03-05T01:20:18;100931.91;;;2.29;100.00
12172;BME280;6149;52.418;13.668;2023-03-05T01:22:45;100921.66;;;2.17;100.00
12172;BME280;6149;52.418;13.668;2023-03-05T01:25:13;100920.88;;;2.11;100.00
12172;BME280;6149;52.418;13.668;2023-03-05T01:27:40;100910.47;;;2.09;100.00
12172;BME280;6149;52.418;13.668;2023-03-05T01:30:09;100912.22;;;2.09;100.00
12172;BME280;6149;52.418;13.668;2023-03-05T01:32:38;100907.72;;;2.20;100.00
12172;BME280;6149;52.418;13.668;2023-03-05T01:35:07;100902.53;;;2.18;100.00
12172;BME280;6149;52.418;13.668;2023-03-05T01:37:35;100900.78;;;2.17;100.00
12172;BME280;6149;52.418;13.668;2023-03-05T01:40:02;100903.50;;;2.10;100.00
12172;BME280;6149;52.418;13.668;2023-03-05T01:42:30;100902.72;;;2.03;100.00
12172;BME280;6149;52.418;13.668;2023-03-05T01:45:02;100894.81;;;2.11;100.00
12172;BME280;6149;52.418;13.668;2023-03-05T01:47:31;100890.47;;;2.10;100.00
12172;BME280;6149;52.418;13.668;2023-03-05T01:49:58;100899.25;;;2.03;100.00
12172;BME280;6149;52.418;13.668;2023-03-05T01:52:28;100893.94;;;2.10;100.00
12172;BME280;6149;52.418;13.668;2023-03-05T01:54:58;100891.38;;;2.07;100.00
12172;BME280;6149;52.418;13.668;2023-03-05T01:57:30;100890.59;;;2.00;100.00
12172;BME280;6149;52.418;13.668;2023-03-05T02:00:01;100887.13;;;1.98;100.00
12172;BME280;6149;52.418;13.668;2023-03-05T02:02:30;100884.38;;;2.11;100.00
12172;BME280;6149;52.418;13.668;2023-03-05T02:05:01;100882.66;;;2.08;100.00
12172;BME280;6149;52.418;13.668;2023-03-05T02:07:32;100879.19;;;2.08;100.00
12172;BME280;6149;52.418;13.668;2023-03-05T02:10:01;100881.91;;;2.00;100.00
12172;BME280;6149;52.418;13.668;2023-03-05T02:12:31;100878.47;;;1.96;100.00
12172;BME280;6149;52.418;13.668;2023-03-05T02:14:58;100881.09;;;1.95;100.00
12172;BME280;6149;52.418;13.668;2023-03-05T02:17:26;100877.59;;;1.96;100.00
12172;BME280;6149;52.418;13.668;2023-03-05T02:19:55;100874.13;;;1.97;100.00
12172;BME280;6149;52.418;13.668;2023-03-05T02:22:29;100868.22;;;1.84;100.00
12172;BME280;6149;52.418;13.668;2023-03-05T02:24:56;100863.88;;;1.85;100.00
12172;BME280;6149;52.418;13.668;2023-03-05T02:27:27;100855.97;;;1.88;100.00
12172;BME280;6149;52.418;13.668;2023-03-05T02:29:59;100867.28;;;1.87;99.65
12172;BME280;6149;52.418;13.668;2023-03-05T02:32:27;100863.09;;;1.77;98.86
12172;BME280;6149;52.418;13.668;2023-03-05T02:34:53;100858.84;;;1.70;99.81
12172;BME280;6149;52.418;13.668;2023-03-05T02:37:20;100861.38;;;1.77;98.04
12172;BME280;6149;52.418;13.668;2023-03-05T02:39:47;100864.91;;;1.72;96.70
12172;BME280;6149;52.418;13.668;2023-03-05T02:42:14;100852.81;;;1.66;95.36
12172;BME280;6149;52.418;13.668;2023-03-05T02:44:41;100858.84;;;1.71;97.13
12172;BME280;6149;52.418;13.668;2023-03-05T02:47:07;100851.06;;;1.66;95.88
12172;BME280;6149;52.418;13.668;2023-03-05T02:49:34;100850.16;;;1.71;93.99
12172;BME280;6149;52.418;13.668;2023-03-05T02:52:00;100844.97;;;1.67;94.50
12172;BME280;6149;52.418;13.668;2023-03-05T02:54:27;100850.22;;;1.64;95.78
12172;BME280;6149;52.418;13.668;2023-03-05T02:56:55;100838.94;;;1.64;93.57
12172;BME280;6149;52.418;13.668;2023-03-05T02:59:21;100845.91;;;1.63;92.12
12172;BME280;6149;52.418;13.668;2023-03-05T03:01:48;100845.91;;;1.63;92.63
12172;BME280;6149;52.418;13.668;2023-03-05T03:04:15;100843.25;;;1.66;91.78
12172;BME280;6149;52.418;13.668;2023-03-05T03:06:41;100835.41;;;1.68;92.66
12172;BME280;6149;52.418;13.668;2023-03-05T03:09:08;100837.28;;;1.57;92.57
12172;BME280;6149;52.418;13.668;2023-03-05T03:11:35;100825.94;;;1.61;91.61
12172;BME280;6149;52.418;13.668;2023-03-05T03:14:03;100826.88;;;1.55;92.35
12172;BME280;6149;52.418;13.668;2023-03-05T03:16:30;100828.59;;;1.56;92.13
12172;BME280;6149;52.418;13.668;2023-03-05T03:18:56;100828.59;;;1.58;92.28
12172;BME280;6149;52.418;13.668;2023-03-05T03:21:24;100826.81;;;1.60;91.40
12172;BME280;6149;52.418;13.668;2023-03-05T03:23:51;100820.78;;;1.56;92.58
12172;BME280;6149;52.418;13.668;2023-03-05T03:26:18;100820.72;;;1.62;92.37
12172;BME280;6149;52.418;13.668;2023-03-05T03:28:45;100819.00;;;1.61;92.23
12172;BME280;6149;52.418;13.668;2023-03-05T03:31:13;100815.41;;;1.70;91.27
12172;BME280;6149;52.418;13.668;2023-03-05T03:33:40;100806.75;;;1.66;91.71
12172;BME280;6149;52.418;13.668;2023-03-05T03:36:08;100812.91;;;1.61;92.03
12172;BME280;6149;52.418;13.668;2023-03-05T03:38:35;100805.00;;;1.68;90.23
12172;BME280;6149;52.418;13.668;2023-03-05T03:41:04;100803.22;;;1.71;90.63
12172;BME280;6149;52.418;13.668;2023-03-05T03:43:32;100801.47;;;1.73;91.12
12172;BME280;6149;52.418;13.668;2023-03-05T03:45:59;100798.09;;;1.66;89.39
12172;BME280;6149;52.418;13.668;2023-03-05T03:48:27;100792.84;;;1.67;90.58
12172;BME280;6149;52.418;13.668;2023-03-05T03:50:53;100792.84;;;1.69;90.36
12172;BME280;6149;52.418;13.668;2023-03-05T03:53:20;100788.56;;;1.63;90.61
12172;BME280;6149;52.418;13.668;2023-03-05T03:55:46;100780.72;;;1.65;90.92
12172;BME280;6149;52.418;13.668;2023-03-05T03:58:13;100784.31;;;1.56;91.38
12172;BME280;6149;52.418;13.668;2023-03-05T04:00:40;100785.94;;;1.63;90.07
12172;BME280;6149;52.418;13.668;2023-03-05T04:03:07;100778.16;;;1.62;90.82
12172;BME280;6149;52.418;13.668;2023-03-05T04:05:35;100777.25;;;1.64;91.48
12172;BME280;6149;52.418;13.668;2023-03-05T04:08:01;100780.78;;;1.60;91.46
12172;BME280;6149;52.418;13.668;2023-03-05T04:10:28;100779.06;;;1.59;90.91
12172;BME280;6149;52.418;13.668;2023-03-05T04:12:55;100778.06;;;1.68;90.81
12172;BME280;6149;52.418;13.668;2023-03-05T04:15:21;100772.00;;;1.67;90.66
12172;BME280;6149;52.418;13.668;2023-03-05T04:17:49;100771.91;;;1.75;91.45
12172;BME280;6149;52.418;13.668;2023-03-05T04:20:16;100776.31;;;1.68;91.80
12172;BME280;6149;52.418;13.668;2023-03-05T04:22:44;100765.13;;;1.62;93.20
12172;BME280;6149;52.418;13.668;2023-03-05T04:25:11;100770.41;;;1.57;93.56
12172;BME280;6149;52.418;13.668;2023-03-05T04:27:37;100755.59;;;1.59;93.47
12172;BME280;6149;52.418;13.668;2023-03-05T04:30:06;100765.09;;;1.65;93.77
12172;BME280;6149;52.418;13.668;2023-03-05T04:32:34;100755.59;;;1.61;93.49
12172;BME280;6149;52.418;13.668;2023-03-05T04:35:01;100756.47;;;1.60;94.23
12172;BME280;6149;52.418;13.668;2023-03-05T04:37:27;100751.31;;;1.55;95.72
12172;BME280;6149;52.418;13.668;2023-03-05T04:39:55;100758.31;;;1.50;95.45
12172;BME280;6149;52.418;13.668;2023-03-05T04:42:22;100745.25;;;1.55;95.43
12172;BME280;6149;52.418;13.668;2023-03-05T04:44:49;100749.69;;;1.48;95.62
12172;BME280;6149;52.418;13.668;2023-03-05T04:47:17;100743.50;;;1.54;96.55
12172;BME280;6149;52.418;13.668;2023-03-05T04:49:44;100749.78;;;1.42;97.08
12172;BME280;6149;52.418;13.668;2023-03-05T04:52:11;100754.13;;;1.43;96.70
12172;BME280;6149;52.418;13.668;2023-03-05T04:54:38;100755.94;;;1.37;97.07
12172;BME280;6149;52.418;13.668;2023-03-05T04:57:06;100742.03;;;1.38;97.70
12172;BME280;6149;52.418;13.668;2023-03-05T04:59:33;100747.25;;;1.36;97.70
12172;BME280;6149;52.418;13.668;2023-03-05T05:02:00;100743.78;;;1.37;97.78
12172;BME280;6149;52.418;13.668;2023-03-05T05:04:26;100742.91;;;1.37;97.99
12172;BME280;6149;52.418;13.668;2023-03-05T05:06:54;100739.56;;;1.25;98.82
12172;BME280;6149;52.418;13.668;2023-03-05T05:09:21;100740.50;;;1.21;99.60
12172;BME280;6149;52.418;13.668;2023-03-05T05:11:48;100748.31;;;1.21;99.41
12172;BME280;6149;52.418;13.668;2023-03-05T05:14:16;100746.59;;;1.20;100.00
12172;BME280;6149;52.418;13.668;2023-03-05T05:16:43;100747.44;;;1.21;100.00
12172;BME280;6149;52.418;13.668;2023-03-05T05:19:09;100738.75;;;1.20;99.82
12172;BME280;6149;52.418;13.668;2023-03-05T05:21:36;100749.13;;;1.25;100.00
12172;BME280;6149;52.418;13.668;2023-03-05T05:24:03;100742.19;;;1.25;100.00
12172;BME280;6149;52.418;13.668;2023-03-05T05:26:30;100746.53;;;1.25;100.00
12172;BME280;6149;52.418;13.668;2023-03-05T05:28:57;100739.56;;;1.25;100.00
12172;BME280;6149;52.418;13.668;2023-03-05T05:31:25;100737.00;;;1.22;100.00
12172;BME280;6149;52.418;13.668;2023-03-05T05:33:52;100746.63;;;1.16;100.00
12172;BME280;6149;52.418;13.668;2023-03-05T05:36:19;100737.84;;;1.26;100.00
12172;BME280;6149;52.418;13.668;2023-03-05T05:38:46;100737.88;;;1.23;100.00
12172;BME280;6149;52.418;13.668;2023-03-05T05:41:15;100736.25;;;1.13;100.00
12172;BME280;6149;52.418;13.668;2023-03-05T05:43:43;100739.75;;;1.12;100.00
12172;BME280;6149;52.418;13.668;2023-03-05T05:46:11;100742.25;;;1.19;100.00
12172;BME280;6149;52.418;13.668;2023-03-05T05:48:41;100741.50;;;1.11;100.00
12172;BME280;6149;52.418;13.668;2023-03-05T05:51:10;100745.81;;;1.12;100.00
12172;BME280;6149;52.418;13.668;2023-03-05T05:53:39;100736.31;;;1.10;100.00
12172;BME280;6149;52.418;13.668;2023-03-05T05:56:07;100747.47;;;1.19;100.00
12172;BME280;6149;52.418;13.668;2023-03-05T05:58:36;100738.91;;;1.11;100.00
12172;BME280;6149;52.418;13.668;2023-03-05T06:01:11;100741.56;;;1.07;100.00
12172;BME280;6149;52.418;13.668;2023-03-05T06:03:38;100742.50;;;0.99;100.00
12172;BME280;6149;52.418;13.668;2023-03-05T06:06:09;100750.31;;;1.01;100.00
12172;BME280;6149;52.418;13.668;2023-03-05T06:08:36;100743.28;;;1.08;100.00
12172;BME280;6149;52.418;13.668;2023-03-05T06:11:03;100748.50;;;1.08;100.00
12172;BME280;6149;52.418;13.668;2023-03-05T06:13:30;100753.66;;;1.11;100.00
12172;BME280;6149;52.418;13.668;2023-03-05T06:15:57;100743.19;;;1.14;100.00
12172;BME280;6149;52.418;13.668;2023-03-05T06:18:25;100739.81;;;1.09;100.00
12172;BME280;6149;52.418;13.668;2023-03-05T06:20:53;100738.94;;;1.10;100.00
12172;BME280;6149;52.418;13.668;2023-03-05T06:23:22;100731.84;;;1.19;100.00
12172;BME280;6149;52.418;13.668;2023-03-05T06:25:49;100731.00;;;1.17;100.00
12172;BME280;6149;52.418;13.668;2023-03-05T06:28:15;100736.09;;;1.25;100.00
12172;BME280;6149;52.418;13.668;2023-03-05T06:30:42;100741.34;;;1.22;100.00
12172;BME280;6149;52.418;13.668;2023-03-05T06:33:09;100736.91;;;1.30;100.00
12172;BME280;6149;52.418;13.668;2023-03-05T06:35:36;100726.34;;;1.41;100.00
12172;BME280;6149;52.418;13.668;2023-03-05T06:38:04;100729.84;;;1.40;100.00
12172;BME280;6149;52.418;13.668;2023-03-05T06:40:32;100737.69;;;1.37;100.00
12172;BME280;6149;52.418;13.668;2023-03-05T06:42:58;100734.25;;;1.34;100.00
12172;BME280;6149;52.418;13.668;2023-03-05T06:45:25;100738.53;;;1.39;100.00
12172;BME280;6149;52.418;13.668;2023-03-05T06:47:51;100738.44;;;1.46;100.00
12172;BME280;6149;52.418;13.668;2023-03-05T06:50:18;100733.06;;;1.55;100.00
12172;BME280;6149;52.418;13.668;2023-03-05T06:52:47;100737.31;;;1.62;100.00
12172;BME280;6149;52.418;13.668;2023-03-05T06:55:14;100738.06;;;1.72;100.00
12172;BME280;6149;52.418;13.668;2023-03-05T06:57:43;100739.72;;;1.76;100.00
12172;BME280;6149;52.418;13.668;2023-03-05T07:00:11;100740.38;;;1.90;100.00
12172;BME280;6149;52.418;13.668;2023-03-05T07:02:38;100735.88;;;2.00;100.00
12172;BME280;6149;52.418;13.668;2023-03-05T07:05:06;100735.91;;;1.97;100.00
12172;BME280;6149;52.418;13.668;2023-03-05T07:07:33;100733.97;;;2.11;100.00
12172;BME280;6149;52.418;13.668;2023-03-05T07:10:00;100739.19;;;2.11;100.00
12172;BME280;6149;52.418;13.668;2023-03-05T07:12:27;100737.50;;;2.07;100.00
12172;BME280;6149;52.418;13.668;2023-03-05T07:14:55;100739.25;;;2.07;99.89
12172;BME280;6149;52.418;13.668;2023-03-05T07:17:22;100738.34;;;2.09;99.31
12172;BME280;6149;52.418;13.668;2023-03-05T07:19:48;100746.06;;;2.15;99.04
12172;BME280;6149;52.418;13.668;2023-03-05T07:22:15;100743.50;;;2.12;98.56
12172;BME280;6149;52.418;13.668;2023-03-05T07:24:42;100740.91;;;2.12;97.32
12172;BME280;6149;52.418;13.668;2023-03-05T07:27:08;100739.97;;;2.16;98.64
12172;BME280;6149;52.418;13.668;2023-03-05T07:29:35;100741.75;;;2.14;97.83
12172;BME280;6149;52.418;13.668;2023-03-05T07:32:03;100744.00;;;2.34;96.34
12172;BME280;6149;52.418;13.668;2023-03-05T07:34:31;100746.53;;;2.39;95.60
12172;BME280;6149;52.418;13.668;2023-03-05T07:36:57;100740.53;;;2.33;95.92
12172;BME280;6149;52.418;13.668;2023-03-05T07:39:24;100746.69;;;2.28;96.37
12172;BME280;6149;52.418;13.668;2023-03-05T07:41:50;100745.75;;;2.33;96.23
12172;BME280;6149;52.418;13.668;2023-03-05T07:44:17;100741.41;;;2.32;96.11
12172;BME280;6149;52.418;13.668;2023-03-05T07:46:44;100747.50;;;2.33;95.96
12172;BME280;6149;52.418;13.668;2023-03-05T07:49:12;100746.47;;;2.42;95.32
12172;BME280;6149;52.418;13.668;2023-03-05T07:51:39;100749.97;;;2.41;94.49
12172;BME280;6149;52.418;13.668;2023-03-05T07:54:06;100738.50;;;2.51;92.42
12172;BME280;6149;52.418;13.668;2023-03-05T07:56:34;100736.84;;;2.45;92.45
12172;BME280;6149;52.418;13.668;2023-03-05T07:59:03;100733.25;;;2.52;92.24
12172;BME280;6149;52.418;13.668;2023-03-05T08:01:31;100739.44;;;2.47;91.71
12172;BME280;6149;52.418;13.668;2023-03-05T08:03:57;100735.06;;;2.47;92.02
12172;BME280;6149;52.418;13.668;2023-03-05T08:06:26;100743.50;;;2.61;92.58
12172;BME280;6149;52.418;13.668;2023-03-05T08:08:52;100737.19;;;2.73;91.83
12172;BME280;6149;52.418;13.668;2023-03-05T08:11:19;100729.91;;;2.90;90.19
12172;BME280;6149;52.418;13.668;2023-03-05T08:13:46;100734.22;;;2.91;90.93
12172;BME280;6149;52.418;13.668;2023-03-05T08:16:13;100731.69;;;2.88;90.06
12172;BME280;6149;52.418;13.668;2023-03-05T08:18:41;100729.84;;;2.93;90.25
12172;BME280;6149;52.418;13.668;2023-03-05T08:21:15;100733.34;;;2.92;87.98
12172;BME280;6149;52.418;13.668;2023-03-05T08:23:44;100741.19;;;2.92;87.87
12172;BME280;6149;52.418;13.668;2023-03-05T08:26:12;100735.94;;;2.94;88.93
12172;BME280;6149;52.418;13.668;2023-03-05T08:28:39;100734.06;;;2.99;86.80
12172;BME280;6149;52.418;13.668;2023-03-05T08:31:07;100734.75;;;3.09;85.83
12172;BME280;6149;52.418;13.668;2023-03-05T08:33:35;100734.00;;;3.02;84.04
12172;BME280;6149;52.418;13.668;2023-03-05T08:36:02;100730.47;;;3.05;84.56
12172;BME280;6149;52.418;13.668;2023-03-05T08:38:29;100718.25;;;3.07;85.49
12172;BME280;6149;52.418;13.668;2023-03-05T08:40:57;100708.47;;;3.16;85.84
12172;BME280;6149;52.418;13.668;2023-03-05T08:43:24;100707.16;;;3.35;83.95
12172;BME280;6149;52.418;13.668;2023-03-05T08:45:50;100712.09;;;3.49;82.28
12172;BME280;6149;52.418;13.668;2023-03-05T08:48:18;100711.91;;;3.57;81.45
12172;BME280;6149;52.418;13.668;2023-03-05T08:50:45;100721.88;;;3.78;83.56
12172;BME280;6149;52.418;13.668;2023-03-05T08:53:11;100719.72;;;3.95;80.57
12172;BME280;6149;52.418;13.668;2023-03-05T08:55:38;100704.00;;;3.97;78.61
12172;BME280;6149;52.418;13.668;2023-03-05T08:58:06;100706.72;;;3.92;78.71
12172;BME280;6149;52.418;13.668;2023-03-05T09:00:32;100700.59;;;3.93;77.35
12172;BME280;6149;52.418;13.668;2023-03-05T09:02:59;100703.56;;;3.78;77.36
12172;BME280;6149;52.418;13.668;2023-03-05T09:05:25;100703.91;;;3.64;73.55
12172;BME280;6149;52.418;13.668;2023-03-05T09:07:52;100693.66;;;3.55;74.27
12172;BME280;6149;52.418;13.668;2023-03-05T09:10:19;100687.97;;;3.74;75.58
12172;BME280;6149;52.418;13.668;2023-03-05T09:12:45;100685.97;;;3.85;74.66
12172;BME280;6149;52.418;13.668;2023-03-05T09:15:14;100683.53;;;3.77;71.73
12172;BME280;6149;52.418;13.668;2023-03-05T09:17:41;100680.97;;;3.76;72.10
12172;BME280;6149;52.418;13.668;2023-03-05T09:20:11;100686.91;;;3.82;72.63
12172;BME280;6149;52.418;13.668;2023-03-05T09:22:39;100683.56;;;3.76;72.59
12172;BME280;6149;52.418;13.668;2023-03-05T09:25:07;100689.56;;;3.81;72.50
12172;BME280;6149;52.418;13.668;2023-03-05T09:27:37;100687.44;;;3.96;71.78
12172;BME280;6149;52.418;13.668;2023-03-05T09:30:05;100676.88;;;4.01;73.10
12172;BME280;6149;52.418;13.668;2023-03-05T09:32:33;100684.06;;;4.25;70.44
12172;BME280;6149;52.418;13.668;2023-03-05T09:35:00;100693.34;;;4.39;69.12
12172;BME280;6149;52.418;13.668;2023-03-05T09:37:27;100674.16;;;4.38;70.31
12172;BME280;6149;52.418;13.668;2023-03-05T09:39:54;100682.91;;;4.37;69.78
12172;BME280;6149;52.418;13.668;2023-03-05T09:42:43;100680.41;;;4.32;70.77
12172;BME280;6149;52.418;13.668;2023-03-05T09:45:20;100683.75;;;4.38;69.86
12172;BME280;6149;52.418;13.668;2023-03-05T09:47:55;100672.97;;;4.48;69.14
12172;BME280;6149;52.418;13.668;2023-03-05T09:50:33;100673.13;;;4.44;66.08
12172;BME280;6149;52.418;13.668;2023-03-05T09:53:07;100669.94;;;4.32;66.58
12172;BME280;6149;52.418;13.668;2023-03-05T09:55:42;100680.59;;;4.25;65.25
12172;BME280;6149;52.418;13.668;2023-03-05T09:58:13;100664.19;;;4.18;64.85
12172;BME280;6149;52.418;13.668;2023-03-05T10:00:43;100670.66;;;4.05;64.66
12172;BME280;6149;52.418;13.668;2023-03-05T10:03:16;100664.84;;;3.94;65.64
12172;BME280;6149;52.418;13.668;2023-03-05T10:05:52;100674.44;;;3.93;66.47
12172;BME280;6149;52.418;13.668;2023-03-05T10:08:30;100670.13;;;3.91;65.90
12172;BME280;6149;52.418;13.668;2023-03-05T10:11:05;100664.91;;;3.91;66.73
12172;BME280;6149;52.418;13.668;2023-03-05T10:13:39;100665.91;;;3.85;69.19
12172;BME280;6149;52.418;13.668;2023-03-05T10:16:30;100658.09;;;3.84;69.77
12172;BME280;6149;52.418;13.668;2023-03-05T10:19:13;100654.78;;;3.77;70.87
12172;BME280;6149;52.418;13.668;2023-03-05T10:21:49;100650.38;;;3.79;71.50
12172;BME280;6149;52.418;13.668;2023-03-05T10:24:24;100638.97;;;3.82;70.07
12172;BME280;6149;52.418;13.668;2023-03-05T10:26:59;100646.44;;;3.97;69.51
12172;BME280;6149;52.418;13.668;2023-03-05T10:29:41;100652.47;;;4.00;68.50
12172;BME280;6149;52.418;13.668;2023-03-05T10:32:35;100649.72;;;4.05;67.41
12172;BME280;6149;52.418;13.668;2023-03-05T10:35:30;100641.06;;;4.03;68.61
12172;BME280;6149;52.418;13.668;2023-03-05T10:38:21;100629.16;;;4.24;66.67
12172;BME280;6149;52.418;13.668;2023-03-05T10:40:59;100645.94;;;4.15;68.25
12172;BME280;6149;52.418;13.668;2023-03-05T10:43:36;100629.69;;;4.04;69.30
12172;BME280;6149;52.418;13.668;2023-03-05T10:46:13;100637.25;;;4.15;69.42
12172;BME280;6149;52.418;13.668;2023-03-05T10:48:44;100641.69;;;4.11;67.96
12172;BME280;6149;52.418;13.668;2023-03-05T10:51:18;100628.63;;;4.11;68.20
12172;BME280;6149;52.418;13.668;2023-03-05T10:53:54;100620.75;;;4.11;69.48
12172;BME280;6149;52.418;13.668;2023-03-05T10:56:24;100635.75;;;4.06;68.67
12172;BME280;6149;52.418;13.668;2023-03-05T10:58:52;100635.19;;;3.93;69.50
12172;BME280;6149;52.418;13.668;2023-03-05T11:01:21;100634.38;;;3.91;70.69
12172;BME280;6149;52.418;13.668;2023-03-05T11:03:54;100640.00;;;3.75;72.96
12172;BME280;6149;52.418;13.668;2023-03-05T11:06:29;100629.22;;;3.53;76.53
12172;BME280;6149;52.418;13.668;2023-03-05T11:09:19;100631.88;;;3.51;78.83
12172;BME280;6149;52.418;13.668;2023-03-05T11:12:10;100633.59;;;3.52;81.55
12172;BME280;6149;52.418;13.668;2023-03-05T11:14:39;100628.41;;;3.51;81.46
12172;BME280;6149;52.418;13.668;2023-03-05T11:17:29;100625.03;;;3.46;81.88
12172;BME280;6149;52.418;13.668;2023-03-05T11:20:15;100623.41;;;3.42;81.65
12172;BME280;6149;52.418;13.668;2023-03-05T11:23:09;100623.09;;;3.54;80.87
12172;BME280;6149;52.418;13.668;2023-03-05T11:25:55;100621.56;;;3.45;79.72
12172;BME280;6149;52.418;13.668;2023-03-05T11:28:26;100625.13;;;3.43;80.57
12172;BME280;6149;52.418;13.668;2023-03-05T11:31:01;100612.88;;;3.45;77.24
12172;BME280;6149;52.418;13.668;2023-03-05T11:33:31;100614.50;;;3.49;78.42
12172;BME280;6149;52.418;13.668;2023-03-05T11:36:21;100615.44;;;3.46;77.09
12172;BME280;6149;52.418;13.668;2023-03-05T11:38:54;100611.34;;;3.34;79.47
12172;BME280;6149;52.418;13.668;2023-03-05T11:41:27;100601.47;;;3.47;79.51
12172;BME280;6149;52.418;13.668;2023-03-05T11:43:58;100599.56;;;3.55;79.70
12172;BME280;6149;52.418;13.668;2023-03-05T11:46:28;100595.91;;;3.62;80.31
12172;BME280;6149;52.418;13.668;2023-03-05T11:49:02;100594.03;;;3.67;80.58
12172;BME280;6149;52.418;13.668;2023-03-05T11:51:35;100590.56;;;3.67;78.68
12172;BME280;6149;52.418;13.668;2023-03-05T11:54:13;100592.84;;;3.79;80.18
12172;BME280;6149;52.418;13.668;2023-03-05T11:56:43;100585.81;;;3.81;79.85
12172;BME280;6149;52.418;13.668;2023-03-05T11:59:13;100583.97;;;3.85;78.64
12172;BME280;6149;52.418;13.668;2023-03-05T12:01:45;100577.06;;;3.82;78.69
12172;BME280;6149;52.418;13.668;2023-03-05T12:04:14;100581.31;;;3.86;76.86
12172;BME280;6149;52.418;13.668;2023-03-05T12:06:43;100572.38;;;3.95;75.39
12172;BME280;6149;52.418;13.668;2023-03-05T12:09:19;100565.94;;;4.08;76.69
12172;BME280;6149;52.418;13.668;2023-03-05T12:11:54;100568.34;;;4.14;74.77
12172;BME280;6149;52.418;13.668;2023-03-05T12:14:27;100552.81;;;4.41;73.58
12172;BME280;6149;52.418;13.668;2023-03-05T12:17:01;100553.09;;;4.30;75.53
12172;BME280;6149;52.418;13.668;2023-03-05T12:19:37;100558.97;;;4.38;73.34
12172;BME280;6149;52.418;13.668;2023-03-05T12:22:15;100548.81;;;4.27;74.29
12172;BME280;6149;52.418;13.668;2023-03-05T12:24:44;100555.09;;;4.20;76.72
12172;BME280;6149;52.418;13.668;2023-03-05T12:27:13;100548.44;;;4.09;77.47
12172;BME280;6149;52.418;13.668;2023-03-05T12:29:46;100551.25;;;4.02;79.84
12172;BME280;6149;52.418;13.668;2023-03-05T12:35:37;100552.72;;;3.80;83.21
12172;BME280;6149;52.418;13.668;2023-03-05T12:38:16;100546.22;;;3.95;83.63
12172;BME280;6149;52.418;13.668;2023-03-05T12:40:45;100538.38;;;3.95;84.89
12172;BME280;6149;52.418;13.668;2023-03-05T12:43:36;100539.13;;;4.00;86.39
12172;BME280;6149;52.418;13.668;2023-03-05T12:46:22;100527.34;;;4.15;84.32
12172;BME280;6149;52.418;13.668;2023-03-05T12:48:51;100530.66;;;4.21;82.96
12172;BME280;6149;52.418;13.668;2023-03-05T12:51:33;100527.81;;;4.29;82.81
12172;BME280;6149;52.418;13.668;2023-03-05T12:54:26;100517.31;;;4.30;82.05
12172;BME280;6149;52.418;13.668;2023-03-05T12:56:57;100513.63;;;4.38;80.58
12172;BME280;6149;52.418;13.668;2023-03-05T12:59:29;100507.44;;;4.40;81.31
12172;BME280;6149;52.418;13.668;2023-03-05T13:02:02;100503.34;;;4.59;77.70
12172;BME280;6149;52.418;13.668;2023-03-05T13:04:43;100498.47;;;4.47;77.17
12172;BME280;6149;52.418;13.668;2023-03-05T13:07:14;100499.16;;;4.54;76.15
12172;BME280;6149;52.418;13.668;2023-03-05T13:09:50;100500.66;;;4.33;70.66
12172;BME280;6149;52.418;13.668;2023-03-05T13:12:21;100505.22;;;4.26;68.00
12172;BME280;6149;52.418;13.668;2023-03-05T13:14:56;100501.88;;;4.21;69.19